Time;durP1;ratioP1;P1;durP2;ratioP2;P2;SDS_P1;SDS_P2;PMS_P1;PMS_P2;Temp;Humidity;BMP_temperature;BMP_pressure;BME280_temperature;BME280_humidity;BME280_pressure;Samples;Min_cycle;Max_cycle;Signal;HPM_P1;HPM_P2
2023/04/21 00:02:16;;;;;;;62.25;32.67;;;;;;;8.65;100.00;100364.38;8293127;28;20038;-58
2023/04/21 00:06:21;;;;;;;61.58;33.28;;;;;;;8.66;100.00;100357.16;8292854;28;20045;-58
2023/04/21 00:10:21;;;;;;;59.25;33.13;;;;;;;8.64;100.00;100367.22;8293553;28;20049;-58
2023/04/21 00:14:22;;;;;;;54.85;30.60;;;;;;;8.66;100.00;100362.56;8290002;28;20113;-58
2023/04/21 00:18:22;;;;;;;54.97;31.17;;;;;;;8.67;100.00;100353.47;8292369;28;20057;-59
2023/04/21 00:22:23;;;;;;;57.10;32.20;;;;;;;8.70;100.00;100339.72;8288424;28;20065;-59
2023/04/21 00:26:23;;;;;;;61.20;33.90;;;;;;;8.70;100.00;100331.66;8291691;28;20079;-59
2023/04/21 00:30:24;;;;;;;59.60;34.72;;;;;;;8.67;100.00;100326.53;8292122;28;20120;-59
2023/04/21 00:34:25;;;;;;;63.47;34.03;;;;;;;8.68;100.00;100328.22;8291068;28;20124;-59
2023/04/21 00:38:25;;;;;;;59.35;33.35;;;;;;;8.68;100.00;100333.63;8292119;28;20361;-66
2023/04/21 00:42:26;;;;;;;60.28;34.17;;;;;;;8.68;100.00;100328.22;8292232;28;20053;-66
2023/04/21 00:46:28;;;;;;;66.35;33.78;;;;;;;8.73;100.00;100321.47;8291842;28;20041;-66
2023/04/21 00:50:29;;;;;;;62.25;33.95;;;;;;;8.74;100.00;100322.31;8290385;28;20038;-66
2023/04/21 00:54:29;;;;;;;63.78;35.10;;;;;;;8.74;100.00;100322.31;8291097;28;20046;-59
2023/04/21 00:58:31;;;;;;;61.53;34.20;;;;;;;8.74;100.00;100322.31;8291216;28;20554;-60
2023/04/21 01:02:35;;;;;;;62.47;33.03;;;;;;;8.79;100.00;100331.72;8291896;28;20038;-60
2023/04/21 01:06:35;;;;;;;61.75;34.60;;;;;;;8.79;100.00;100330.84;8289937;28;20502;-61
2023/04/21 01:10:37;;;;;;;62.55;33.83;;;;;;;8.74;100.00;100328.56;8320635;28;20096;-60
2023/04/21 01:14:39;;;;;;;67.05;35.47;;;;;;;8.79;100.00;100330.84;8290199;28;20049;-60
2023/04/21 01:18:40;;;;;;;62.95;34.78;;;;;;;8.78;100.00;100329.16;8290813;28;20121;-60
2023/04/21 01:22:43;;;;;;;64.88;35.70;;;;;;;8.83;100.00;100321.50;8291278;28;20045;-60
2023/04/21 01:26:48;;;;;;;63.15;35.22;;;;;;;8.85;100.00;100325.78;8290684;28;20062;-60
2023/04/21 01:30:48;;;;;;;69.25;35.92;;;;;;;8.88;100.00;100327.34;8289749;28;20065;-60
2023/04/21 01:34:49;;;;;;;66.95;36.10;;;;;;;8.88;100.00;100327.34;8290374;28;20520;-60
2023/04/21 01:38:50;;;;;;;73.88;36.95;;;;;;;8.87;100.00;100318.41;8290161;28;20038;-60
2023/04/21 01:42:50;;;;;;;73.40;37.60;;;;;;;8.85;100.00;100322.22;8289352;28;20041;-60
2023/04/21 01:46:51;;;;;;;66.68;34.65;;;;;;;8.84;100.00;100323.22;8290464;28;20061;-59
2023/04/21 01:50:52;;;;;;;69.72;35.88;;;;;;;8.90;100.00;100319.97;8290168;28;20068;-60
2023/04/21 01:54:53;;;;;;;70.97;38.20;;;;;;;8.87;100.00;100322.94;8288576;28;20050;-60
2023/04/21 01:58:53;;;;;;;74.53;38.60;;;;;;;8.86;100.00;100323.94;8288477;28;20042;-60
2023/04/21 02:02:54;;;;;;;67.97;37.35;;;;;;;8.83;100.00;100314.28;8290953;28;20792;-60
2023/04/21 02:06:55;;;;;;;73.13;37.88;;;;;;;8.88;100.00;100313.88;8294424;28;20041;-60
2023/04/21 02:10:55;;;;;;;69.63;37.75;;;;;;;8.87;100.00;100317.53;8296547;28;20049;-60
2023/04/21 02:14:55;;;;;;;71.95;37.92;;;;;;;8.88;100.00;100308.47;8296507;28;20041;-60
2023/04/21 02:18:56;;;;;;;74.28;37.92;;;;;;;8.87;100.00;100314.84;8295417;28;20583;-62
2023/04/21 02:22:57;;;;;;;75.35;37.38;;;;;;;8.85;100.00;100322.22;8296459;28;20037;-62
2023/04/21 02:26:57;;;;;;;76.10;40.75;;;;;;;8.86;100.00;100321.22;8292481;28;20057;-62
2023/04/21 02:30:57;;;;;;;80.82;40.65;;;;;;;8.85;100.00;100317.69;8293514;28;20420;-62
2023/04/21 02:34:58;;;;;;;77.07;40.85;;;;;;;8.88;100.00;100321.97;8296161;28;20392;-62
2023/04/21 02:38:58;;;;;;;88.05;40.92;;;;;;;8.84;100.00;100312.44;8291225;28;20050;-62
2023/04/21 02:42:59;;;;;;;79.15;40.35;;;;;;;8.80;100.00;100311.84;8294579;28;20515;-60
2023/04/21 02:47:00;;;;;;;82.30;42.70;;;;;;;8.83;100.00;100316.09;8294343;28;20404;-60
2023/04/21 02:51:00;;;;;;;84.00;42.03;;;;;;;8.85;100.00;100309.63;8295629;28;20076;-60
2023/04/21 02:55:02;;;;;;;85.93;42.15;;;;;;;8.84;100.00;100312.44;8295897;28;20045;-60
2023/04/21 02:59:02;;;;;;;87.10;42.58;;;;;;;8.88;100.00;100316.56;8295446;28;20041;-60
2023/04/21 03:03:03;;;;;;;86.97;42.97;;;;;;;8.86;100.00;100313.13;8295694;28;20036;-59
2023/04/21 03:07:04;;;;;;;86.97;43.15;;;;;;;8.86;100.00;100313.13;8295155;28;20037;-59
2023/04/21 03:11:05;;;;;;;86.15;42.40;;;;;;;8.78;100.00;100312.97;8295115;28;20604;-61
2023/04/21 03:15:06;;;;;;;85.32;43.75;;;;;;;8.69;100.00;100316.47;8293467;28;20432;-60
2023/04/21 03:19:08;;;;;;;87.13;41.72;;;;;;;8.59;100.00;100313.72;8294203;28;20416;-59
2023/04/21 03:23:09;;;;;;;86.10;42.25;;;;;;;8.46;100.00;100306.81;8294200;28;20061;-59
2023/04/21 03:27:09;;;;;;;89.05;43.08;;;;;;;8.37;100.00;100319.25;8292831;28;20044;-60
2023/04/21 03:31:10;;;;;;;93.25;44.17;;;;;;;8.22;100.00;100307.09;8293792;28;20121;-59
2023/04/21 03:35:10;;;;;;;91.07;43.63;;;;;;;8.15;100.00;100302.31;8293339;28;20462;-59
2023/04/21 03:39:11;;;;;;;94.10;43.78;;;;;;;8.07;100.00;100317.31;8293795;28;20076;-59
2023/04/21 03:43:11;;;;;;;94.63;43.05;;;;;;;8.04;100.00;100316.69;8293566;28;20061;-59
2023/04/21 03:47:12;;;;;;;94.05;44.58;;;;;;;8.06;100.00;100315.56;8293008;28;20121;-59
2023/04/21 03:51:14;;;;;;;93.20;44.42;;;;;;;7.97;100.00;100316.34;8294362;28;20042;-59
2023/04/21 03:55:14;;;;;;;97.63;44.00;;;;;;;7.94;100.00;100316.59;8293589;28;20068;-59
2023/04/21 03:59:15;;;;;;;93.05;43.83;;;;;;;7.76;100.00;100322.69;8293105;28;20034;-60
2023/04/21 04:03:15;;;;;;;88.43;43.22;;;;;;;7.77;100.00;100324.38;8315249;28;20121;-60
2023/04/21 04:07:16;;;;;;;89.63;41.60;;;;;;;7.60;100.00;100322.25;8326064;28;20409;-60
2023/04/21 04:11:16;;;;;;;97.03;43.42;;;;;;;7.56;100.00;100327.03;8324593;28;20037;-60
2023/04/21 04:15:17;;;;;;;101.03;44.83;;;;;;;7.61;100.00;100322.13;8326119;28;20109;-60
2023/04/21 04:19:17;;;;;;;93.20;43.55;;;;;;;7.68;100.00;100320.63;8325995;28;20061;-60
2023/04/21 04:23:18;;;;;;;95.88;44.92;;;;;;;7.62;100.00;100325.66;8286114;28;20516;-60
2023/04/21 04:27:19;;;;;;;98.90;44.45;;;;;;;7.70;100.00;100323.19;8276482;28;20365;-59
2023/04/21 04:31:20;;;;;;;100.85;45.80;;;;;;;7.61;100.00;100330.19;8289911;28;20069;-59
2023/04/21 04:35:20;;;;;;;94.78;44.47;;;;;;;7.60;100.00;100328.47;8305992;28;20037;-60
2023/04/21 04:39:21;;;;;;;100.80;44.03;;;;;;;7.61;100.00;100318.56;8279730;28;20038;-60
2023/04/21 04:43:23;;;;;;;95.78;43.45;;;;;;;7.59;100.00;100321.41;8267705;28;20049;-59
2023/04/21 04:47:23;;;;;;;101.60;43.58;;;;;;;7.52;100.00;100320.19;8288880;28;20045;-59
2023/04/21 04:51:24;;;;;;;90.22;43.58;;;;;;;7.53;100.00;100316.53;8303604;28;20037;-59
2023/04/21 04:55:24;;;;;;;95.88;44.20;;;;;;;7.55;100.00;100321.78;8289530;28;20358;-60
2023/04/21 04:59:25;;;;;;;93.45;45.08;;;;;;;7.53;100.00;100327.28;8285619;28;20049;-58
2023/04/21 05:03:25;;;;;;;89.03;42.75;;;;;;;7.61;100.00;100324.81;8289566;28;20045;-58
2023/04/21 05:07:26;;;;;;;89.70;43.33;;;;;;;7.61;100.00;100323.97;8286481;28;20042;-58
2023/04/21 05:11:26;;;;;;;93.22;44.10;;;;;;;7.66;100.00;100327.97;8283440;28;20057;-58
2023/04/21 05:15:27;;;;;;;90.55;43.10;;;;;;;7.73;100.00;100334.56;8305554;28;20475;-58
2023/04/21 05:19:27;;;;;;;90.80;42.78;;;;;;;7.82;100.00;100328.44;8265949;28;20082;-58
2023/04/21 05:23:28;;;;;;;77.78;37.90;;;;;;;7.87;100.00;100328.88;8286718;28;20037;-58
2023/04/21 05:27:28;;;;;;;83.15;40.05;;;;;;;7.82;100.00;100328.44;8288819;28;20042;-59
2023/04/21 05:31:28;;;;;;;79.32;39.95;;;;;;;7.79;100.00;100328.69;8287990;28;20060;-59
2023/04/21 05:35:29;;;;;;;76.03;39.17;;;;;;;8.27;100.00;100328.25;8278716;28;20049;-68
2023/04/21 05:39:30;;;;;;;74.50;37.00;;;;;;;8.11;100.00;100333.19;8285537;28;20038;-65
2023/04/21 05:43:33;;;;;;;75.70;37.53;;;;;;;8.10;100.00;100335.03;8285755;28;20507;-65
2023/04/21 05:47:34;;;;;;;72.38;37.05;;;;;;;8.29;100.00;100347.84;8256401;28;20436;-65
2023/04/21 05:51:34;;;;;;;74.95;37.47;;;;;;;8.46;100.00;100344.53;8283401;28;20038;-65
2023/04/21 05:55:35;;;;;;;62.42;34.13;;;;;;;8.57;100.00;100348.00;8281579;28;20058;-63
2023/04/21 05:59:36;;;;;;;59.65;32.58;;;;;;;8.82;100.00;100346.75;8287925;28;20042;-62
2023/04/21 06:03:36;;;;;;;59.22;33.47;;;;;;;8.97;100.00;100346.25;8284965;28;20039;-62
2023/04/21 06:07:37;;;;;;;62.08;34.05;;;;;;;9.22;100.00;100347.66;8314928;28;20052;-62
2023/04/21 06:11:37;;;;;;;57.22;32.00;;;;;;;9.41;100.00;100336.91;8308378;28;20041;-63
2023/04/21 06:15:38;;;;;;;61.15;31.73;;;;;;;9.60;100.00;100329.72;8283290;28;20050;-63
2023/04/21 06:19:38;;;;;;;55.67;31.60;;;;;;;9.72;100.00;100328.63;8287764;28;20512;-65
2023/04/21 06:23:39;;;;;;;63.35;32.60;;;;;;;10.08;100.00;100324.41;8287933;28;20045;-64
2023/04/21 06:27:40;;;;;;;62.10;31.77;;;;;;;10.07;100.00;100327.25;8287922;28;20048;-63
2023/04/21 06:31:40;;;;;;;53.72;31.60;;;;;;;10.13;100.00;100337.47;8287160;28;20045;-63
2023/04/21 06:35:40;;;;;;;54.20;31.35;;;;;;;10.44;100.00;100336.31;8286193;28;20120;-63
2023/04/21 06:39:41;;;;;;;55.25;31.20;;;;;;;10.48;100.00;100330.50;8286164;28;20050;-57
2023/04/21 06:43:41;;;;;;;52.05;30.00;;;;;;;10.60;100.00;100321.22;8287075;28;20407;-58
2023/04/21 06:47:42;;;;;;;55.85;29.80;;;;;;;10.88;100.00;100330.25;8287431;28;20065;-58
2023/04/21 06:51:42;;;;;;;45.03;26.77;;;;;;;11.02;99.35;100332.50;8291043;28;20038;-57
2023/04/21 06:55:43;;;;;;;46.05;26.80;;;;;;;10.91;99.18;100338.06;8291823;28;20049;-58
2023/04/21 06:59:43;;;;;;;40.72;26.02;;;;;;;11.09;99.51;100329.03;8292283;28;20034;-58
2023/04/21 07:03:44;;;;;;;45.55;26.48;;;;;;;11.17;97.75;100337.28;8293129;28;20041;-58
2023/04/21 07:07:44;;;;;;;40.40;24.77;;;;;;;11.41;96.88;100334.84;8293271;28;20084;-58
2023/04/21 07:11:45;;;;;;;40.92;25.77;;;;;;;11.52;94.45;100325.69;8292333;28;20046;-58
2023/04/21 07:15:45;;;;;;;35.25;22.90;;;;;;;11.55;93.56;100320.84;8291795;28;20427;-58
2023/04/21 07:19:46;;;;;;;32.60;20.80;;;;;;;11.67;91.25;100325.06;8291266;28;20164;-57
2023/04/21 07:23:46;;;;;;;27.92;18.88;;;;;;;11.46;91.28;100334.41;8291317;28;20381;-57
2023/04/21 07:27:46;;;;;;;31.42;20.50;;;;;;;11.48;92.50;100318.88;8291964;28;20044;-58
2023/04/21 07:31:47;;;;;;;32.65;21.33;;;;;;;11.88;91.91;100314.81;8292075;28;20518;-57
2023/04/21 07:35:47;;;;;;;28.52;19.05;;;;;;;11.87;90.04;100321.22;8291281;28;20050;-57
2023/04/21 07:39:48;;;;;;;32.53;20.83;;;;;;;12.02;91.37;100323.38;8290528;28;20033;-57
2023/04/21 07:43:48;;;;;;;34.55;21.00;;;;;;;12.54;89.30;100319.78;8291158;28;20416;-57
2023/04/21 07:47:49;;;;;;;30.70;20.00;;;;;;;12.75;87.49;100312.97;8291450;28;20129;-58
2023/04/21 07:51:49;;;;;;;29.48;19.05;;;;;;;12.65;87.21;100316.81;8291506;28;20117;-58
2023/04/21 07:55:50;;;;;;;26.10;18.45;;;;;;;12.48;85.44;100320.41;8273684;28;20519;-63
2023/04/21 07:59:50;;;;;;;25.88;18.38;;;;;;;12.17;86.80;100328.09;8275346;28;20319;-63
2023/04/21 08:03:51;;;;;;;26.58;17.00;;;;;;;12.31;87.02;100318.56;8290717;28;20562;-63
2023/04/21 08:07:51;;;;;;;25.98;16.13;;;;;;;12.26;86.04;100334.47;8290732;28;20038;-63
2023/04/21 08:11:53;;;;;;;25.35;17.17;;;;;;;12.23;86.77;100326.66;8290058;28;20099;-63
2023/04/21 08:15:54;;;;;;;23.90;15.40;;;;;;;12.61;85.61;100320.84;8290712;28;20072;-63
2023/04/21 08:19:54;;;;;;;27.58;17.75;;;;;;;12.52;84.44;100310.94;8288162;28;20044;-63
2023/04/21 08:23:55;;;;;;;28.88;18.92;;;;;;;12.56;86.88;100313.19;8290251;28;20049;-63
2023/04/21 08:27:55;;;;;;;25.35;17.33;;;;;;;12.58;86.49;100321.16;8282693;28;20053;-63
2023/04/21 08:31:56;;;;;;;28.83;18.95;;;;;;;13.01;86.95;100310.28;8276428;28;20049;-63
2023/04/21 08:35:56;;;;;;;26.83;17.42;;;;;;;13.19;83.04;100317.34;8289612;28;20046;-63
2023/04/21 08:39:57;;;;;;;26.58;16.88;;;;;;;13.30;84.33;100316.22;8261577;28;20086;-62
2023/04/21 08:43:57;;;;;;;27.60;17.52;;;;;;;13.32;83.48;100316.91;8257300;28;20034;-63
2023/04/21 08:47:59;;;;;;;29.10;18.45;;;;;;;12.91;84.76;100309.53;8257283;28;20045;-62
2023/04/21 08:52:00;;;;;;;30.25;18.67;;;;;;;13.61;85.85;100311.94;8268383;28;20049;-62
2023/04/21 08:56:00;;;;;;;28.15;16.80;;;;;;;13.67;81.98;100300.41;8289458;28;20077;-62
2023/04/21 09:00:00;;;;;;;24.45;17.05;;;;;;;13.97;84.29;100297.09;8289142;28;20038;-59
2023/04/21 09:04:17;;;;;;;27.83;16.67;;;;;;;14.28;81.24;100300.88;8286775;28;20134;-59
2023/04/21 09:08:17;;;;;;;23.50;15.68;;;;;;;14.49;79.62;100287.59;8319723;28;20342;-59
2023/04/21 09:12:18;;;;;;;23.98;15.23;;;;;;;14.74;81.22;100282.97;8289343;28;20048;-59
2023/04/21 09:16:20;;;;;;;23.67;14.73;;;;;;;14.58;78.77;100292.00;8288821;28;20389;-59
2023/04/21 09:20:21;;;;;;;22.58;14.80;;;;;;;14.11;79.32;100292.81;8288806;28;20053;-59
2023/04/21 09:24:21;;;;;;;24.65;16.73;;;;;;;14.40;81.53;100298.66;8288630;28;20030;-59
2023/04/21 09:28:22;;;;;;;20.75;14.02;;;;;;;14.66;81.34;100288.41;8286202;28;20482;-59
2023/04/21 09:32:22;;;;;;;25.33;14.32;;;;;;;15.01;78.31;100283.41;8266139;28;20048;-59
2023/04/21 09:36:26;;;;;;;20.35;13.75;;;;;;;15.15;77.24;100279.97;8264398;28;20057;-59
2023/04/21 09:40:28;;;;;;;21.37;14.30;;;;;;;16.02;75.33;100273.41;8288212;28;20412;-59
2023/04/21 09:44:29;;;;;;;19.25;12.70;;;;;;;16.71;70.88;100275.94;8288237;28;20034;-59
2023/04/21 09:48:33;;;;;;;17.10;11.63;;;;;;;17.18;69.15;100279.16;8287087;28;20034;-59
2023/04/21 09:52:37;;;;;;;20.13;13.00;;;;;;;16.20;70.19;100273.97;8286519;28;20033;-59
2023/04/21 09:56:39;;;;;;;19.03;12.87;;;;;;;17.13;70.42;100265.22;8285885;28;20096;-59
2023/04/21 10:00:41;;;;;;;14.82;10.55;;;;;;;18.48;65.42;100258.81;8287539;28;20057;-59
2023/04/21 10:04:43;;;;;;;19.85;11.80;;;;;;;19.14;62.55;100244.56;8282732;28;20038;-59
2023/04/21 10:08:44;;;;;;;17.38;11.85;;;;;;;18.21;65.62;100250.56;8285862;28;20046;-59
2023/04/21 10:12:45;;;;;;;18.15;12.13;;;;;;;18.72;62.70;100239.22;8285772;28;20038;-59
2023/04/21 10:16:55;;;;;;;14.13;10.93;;;;;;;18.94;64.67;100232.63;8286901;28;20173;-59
2023/04/21 10:21:00;;;;;;;14.32;8.88;;;;;;;18.38;63.48;100241.91;8285920;28;20050;-58
2023/04/21 10:25:03;;;;;;;12.70;9.20;;;;;;;18.73;62.29;100237.34;8289940;28;20038;-59
2023/04/21 10:29:05;;;;;;;11.05;8.20;;;;;;;19.57;59.51;100230.69;8292860;28;20038;-59
2023/04/21 10:33:06;;;;;;;13.50;9.65;;;;;;;18.37;65.48;100223.78;8322182;28;20458;-60
2023/04/21 10:37:10;;;;;;;13.02;8.95;;;;;;;19.87;60.54;100213.66;8323812;28;20044;-59
2023/04/21 10:45:40;;;;;;;12.07;8.73;;;;;;;17.68;64.74;100191.72;8351530;27;20404;-58
2023/04/21 10:49:40;;;;;;;15.18;9.77;;;;;;;18.28;65.15;100208.53;8348943;28;20053;-58
2023/04/21 10:53:42;;;;;;;16.02;10.30;;;;;;;19.78;60.22;100184.72;8349197;28;20116;-59
2023/04/21 10:57:44;;;;;;;13.68;9.68;;;;;;;19.35;60.07;100175.97;8347460;28;20061;-59
2023/04/21 11:01:44;;;;;;;13.27;9.77;;;;;;;20.11;58.64;100169.16;8348699;28;20067;-59
2023/04/21 11:05:45;;;;;;;15.45;9.57;;;;;;;20.66;57.47;100168.75;8347994;28;20041;-59
2023/04/21 11:09:46;;;;;;;14.90;9.67;;;;;;;21.10;56.46;100162.50;8348306;28;20041;-63
2023/04/21 11:13:47;;;;;;;14.32;10.07;;;;;;;21.15;54.31;100157.22;8347811;28;20821;-63
2023/04/21 11:17:48;;;;;;;13.75;10.30;;;;;;;21.69;54.99;100146.56;8347118;28;20464;-63
2023/04/21 11:21:49;;;;;;;11.70;8.43;;;;;;;22.16;54.67;100132.28;8342603;28;20572;-63
2023/04/21 11:25:49;;;;;;;14.32;9.30;;;;;;;21.80;52.89;100125.78;8346081;28;20625;-63
2023/04/21 11:29:50;;;;;;;13.40;9.30;;;;;;;22.17;52.30;100119.34;8347108;28;20041;-63
2023/04/21 11:33:50;;;;;;;14.02;10.02;;;;;;;21.72;53.20;100117.75;8324583;28;20044;-59
2023/04/21 11:37:51;;;;;;;12.60;9.45;;;;;;;21.55;53.18;100106.44;8356439;28;20498;-62
2023/04/21 11:41:52;;;;;;;13.95;9.10;;;;;;;22.17;52.29;100100.06;8346063;28;20049;-62
2023/04/21 11:45:52;;;;;;;13.55;9.73;;;;;;;22.55;51.46;100096.13;8345482;28;20045;-62
2023/04/21 11:49:56;;;;;;;15.53;10.43;;;;;;;22.57;50.53;100093.13;8344153;28;20052;-62
2023/04/21 11:53:58;;;;;;;20.60;13.63;;;;;;;21.42;52.98;100075.41;8333689;28;20285;-62
2023/04/21 11:57:58;;;;;;;16.27;11.82;;;;;;;19.50;57.90;100096.28;8309083;28;20061;-62
2023/04/21 12:01:59;;;;;;;20.63;14.18;;;;;;;19.05;60.36;100092.31;8302340;28;20041;-62
2023/04/21 12:05:59;;;;;;;26.70;15.98;;;;;;;18.81;61.65;100090.13;8315478;28;20052;-62
2023/04/21 12:10:01;;;;;;;16.33;10.55;;;;;;;18.87;59.67;100072.84;8315872;28;20041;-62
2023/04/21 12:14:02;;;;;;;15.93;10.65;;;;;;;18.60;58.44;100076.53;8305880;28;20049;-62
2023/04/21 12:18:02;;;;;;;11.05;7.60;;;;;;;18.80;57.20;100061.03;8297391;28;20060;-62
2023/04/21 12:22:07;;;;;;;12.77;9.10;;;;;;;18.22;58.45;100072.47;8319892;28;20539;-58
2023/04/21 12:26:07;;;;;;;14.05;9.18;;;;;;;18.48;58.42;100064.44;8291483;28;20578;-59
2023/04/21 12:30:09;;;;;;;12.38;8.52;;;;;;;18.88;57.72;100054.53;8297495;28;20052;-59
2023/04/21 12:34:09;;;;;;;13.57;9.35;;;;;;;18.57;58.50;100057.75;8301693;28;20044;-58
2023/04/21 12:38:09;;;;;;;13.65;8.95;;;;;;;18.57;58.96;100057.75;8313221;28;20041;-59
2023/04/21 12:42:10;;;;;;;9.48;6.78;;;;;;;18.69;55.57;100042.44;8317857;28;20038;-58
2023/04/21 12:46:10;;;;;;;9.93;7.82;;;;;;;18.60;55.44;100059.28;8311121;28;20037;-58
2023/04/21 12:50:12;;;;;;;10.48;6.30;;;;;;;18.77;54.42;100034.06;8321760;28;20505;-59
2023/04/21 12:54:13;;;;;;;9.02;6.05;;;;;;;18.86;53.96;100032.81;8321484;28;20462;-59
2023/04/21 12:58:15;;;;;;;7.90;6.63;;;;;;;19.01;57.76;100040.88;8319022;28;20110;-59
2023/04/21 13:02:16;;;;;;;9.50;6.05;;;;;;;19.08;55.70;100039.84;8299267;28;20056;-59
2023/04/21 13:06:17;;;;;;;10.13;5.88;;;;;;;18.72;55.56;100019.28;8297971;28;20128;-59
2023/04/21 13:10:17;;;;;;;7.53;5.85;;;;;;;18.52;55.47;100030.16;8316657;28;20030;-58
2023/04/21 13:14:18;;;;;;;5.47;4.90;;;;;;;18.81;55.25;100018.91;8318139;28;20045;-59
2023/04/21 13:18:19;;;;;;;5.50;4.70;;;;;;;19.24;56.03;99998.34;8298547;28;20284;-59
2023/04/21 13:22:19;;;;;;;7.78;5.13;;;;;;;19.23;54.32;100002.16;8313259;28;20061;-59
2023/04/21 13:26:19;;;;;;;6.47;4.38;;;;;;;19.24;53.01;100001.09;8314799;28;20415;-58
2023/04/21 13:30:20;;;;;;;7.97;4.90;;;;;;;19.43;54.08;99992.06;8295572;28;20337;-59
2023/04/21 13:34:21;;;;;;;5.68;3.90;;;;;;;19.03;54.79;99973.84;8314559;28;20558;-58
2023/04/21 13:38:22;;;;;;;5.43;4.60;;;;;;;18.91;55.45;99977.41;8316006;28;20486;-58
2023/04/21 13:42:22;;;;;;;7.95;4.22;;;;;;;19.25;55.16;99978.09;8310811;28;20088;-58
2023/04/21 13:46:23;;;;;;;6.50;4.10;;;;;;;19.39;56.02;99979.84;8305023;28;20038;-59
2023/04/21 13:50:24;;;;;;;6.57;3.97;;;;;;;19.73;54.26;99967.78;8317498;28;20037;-59
2023/04/21 13:54:24;;;;;;;6.15;4.45;;;;;;;19.98;55.99;99973.47;8315615;28;20471;-59
2023/04/21 13:58:25;;;;;;;6.95;4.60;;;;;;;19.92;55.56;99957.84;8310133;28;20033;-59
2023/04/21 14:02:25;;;;;;;6.53;4.28;;;;;;;19.45;54.99;99959.81;8302288;28;20102;-58
2023/04/21 14:06:26;;;;;;;5.03;3.67;;;;;;;19.39;55.31;99941.44;8315103;28;20128;-64
2023/04/21 14:10:27;;;;;;;7.05;4.25;;;;;;;19.43;55.56;99950.94;8314449;28;20037;-65
2023/04/21 14:14:27;;;;;;;9.45;5.82;;;;;;;19.46;58.13;99947.75;8312589;28;20326;-59
2023/04/21 14:18:28;;;;;;;6.72;5.57;;;;;;;19.49;59.66;99928.16;8312988;28;20045;-59
2023/04/21 14:22:28;;;;;;;9.38;5.22;;;;;;;19.78;56.70;99939.72;8314958;28;20033;-64
2023/04/21 14:26:29;;;;;;;16.15;6.13;;;;;;;19.48;58.01;99923.72;8314451;28;20091;-64
2023/04/21 14:30:29;;;;;;;5.47;3.55;;;;;;;19.57;55.20;99916.13;8317358;28;20040;-65
2023/04/21 14:34:30;;;;;;;5.07;3.40;;;;;;;19.52;54.17;99908.53;8316239;28;20086;-64
2023/04/21 14:38:32;;;;;;;5.90;3.50;;;;;;;19.42;54.26;99901.78;8313212;28;20038;-59
2023/04/21 14:42:32;;;;;;;5.38;3.65;;;;;;;19.54;53.67;99902.00;8284570;28;20492;-62
2023/04/21 14:46:33;;;;;;;5.30;4.05;;;;;;;19.94;54.96;99890.72;8298837;28;20132;-62
2023/04/21 14:50:33;;;;;;;8.95;5.90;;;;;;;19.37;59.13;99887.91;8295616;28;20483;-62
2023/04/21 14:54:34;;;;;;;10.68;7.38;;;;;;;19.19;59.88;99893.13;8301189;28;20513;-62
2023/04/21 14:58:34;;;;;;;8.32;6.78;;;;;;;18.95;60.16;99882.81;8291187;28;20246;-63
2023/04/21 15:02:35;;;;;;;9.90;6.23;;;;;;;19.02;59.78;99881.75;8292082;28;20046;-63
2023/04/21 15:06:35;;;;;;;9.05;6.60;;;;;;;18.83;59.45;99888.06;8284035;28;20284;-63
2023/04/21 15:10:36;;;;;;;8.25;6.13;;;;;;;18.78;60.08;99874.13;8292498;28;20389;-63
2023/04/21 15:14:38;;;;;;;8.60;6.35;;;;;;;18.71;60.22;99859.59;8311398;28;20566;-63
2023/04/21 15:18:38;;;;;;;8.02;6.45;;;;;;;18.57;60.45;99868.84;8316766;28;20095;-62
2023/04/21 15:22:40;;;;;;;10.95;7.57;;;;;;;18.46;61.81;99854.91;8317687;28;20033;-62
2023/04/21 15:26:40;;;;;;;9.93;7.07;;;;;;;18.31;61.80;99855.06;8311380;28;20045;-62
2023/04/21 15:30:40;;;;;;;9.13;7.38;;;;;;;18.22;60.98;99837.16;8305042;28;20045;-62
2023/04/21 15:34:41;;;;;;;10.35;6.22;;;;;;;18.20;60.89;99839.22;8309771;28;20049;-62
2023/04/21 15:38:41;;;;;;;5.40;4.78;;;;;;;18.29;59.57;99842.63;8327325;28;20045;-62
2023/04/21 15:42:42;;;;;;;7.40;6.32;;;;;;;18.42;61.18;99905.66;8304981;28;20037;-63
2023/04/21 15:46:42;;;;;;;11.93;1.90;;;;;;;16.94;61.54;99916.22;8320875;28;20455;-62
2023/04/21 15:50:44;;;;;;;3.30;1.20;;;;;;;15.99;69.81;99909.25;8321713;28;20045;-62
2023/04/21 15:54:45;;;;;;;13.80;2.63;;;;;;;14.54;86.56;99904.38;8321959;28;20037;-62
2023/04/21 15:58:45;;;;;;;20.77;6.13;;;;;;;12.41;97.93;99878.28;8296823;28;20033;-63
2023/04/21 16:02:46;;;;;;;12.20;5.93;;;;;;;11.86;100.00;99864.47;8256046;28;20065;-63
2023/04/21 16:06:47;;;;;;;10.38;3.75;;;;;;;12.49;100.00;99861.19;8257929;28;20085;-63
2023/04/21 16:10:47;;;;;;;5.50;3.03;;;;;;;12.77;100.00;99859.81;8262432;28;20326;-63
2023/04/21 16:14:48;;;;;;;5.30;2.67;;;;;;;13.01;100.00;99863.41;8282361;28;20038;-62
2023/04/21 16:18:48;;;;;;;7.20;2.97;;;;;;;13.41;100.00;99854.31;8290326;28;20063;-63
2023/04/21 16:22:49;;;;;;;9.35;4.63;;;;;;;13.24;100.00;99861.63;8320764;28;20033;-62
2023/04/21 16:26:50;;;;;;;7.00;3.75;;;;;;;13.50;100.00;99856.81;8309580;28;20527;-63
2023/04/21 16:30:50;;;;;;;6.28;3.05;;;;;;;13.76;100.00;99862.00;8297498;28;20392;-63
2023/04/21 16:34:51;;;;;;;6.65;2.40;;;;;;;13.88;99.68;99860.56;8351816;28;20037;-63
2023/04/21 16:38:51;;;;;;;5.68;2.00;;;;;;;14.16;94.39;99856.34;8328642;28;20057;-63
2023/04/21 16:42:51;;;;;;;6.57;2.08;;;;;;;14.44;94.55;99853.94;8320458;28;20246;-63
2023/04/21 16:46:52;;;;;;;5.03;2.00;;;;;;;14.85;95.51;99858.03;8318720;28;20122;-63
2023/04/21 16:50:52;;;;;;;5.50;1.85;;;;;;;15.12;96.02;99852.81;8324507;28;20037;-63
2023/04/21 16:54:53;;;;;;;2.45;1.83;;;;;;;15.13;95.71;99840.91;8331811;28;20038;-63
2023/04/21 16:58:53;;;;;;;2.45;1.08;;;;;;;15.13;87.18;99832.72;8317508;28;20041;-63
2023/04/21 17:02:54;;;;;;;5.07;1.30;;;;;;;15.15;89.41;99814.34;8317763;28;20041;-62
2023/04/21 17:06:54;;;;;;;3.45;1.23;;;;;;;15.06;87.23;99811.88;8288899;28;20042;-63
2023/04/21 17:10:57;;;;;;;5.13;1.30;;;;;;;15.05;90.71;99811.06;8288352;28;20041;-63
2023/04/21 17:14:57;;;;;;;3.15;1.90;;;;;;;14.92;95.23;99815.44;8287595;28;20042;-63
2023/04/21 17:18:57;;;;;;;3.45;1.83;;;;;;;14.82;96.28;99820.31;8307158;28;20522;-63
2023/04/21 17:22:58;;;;;;;3.72;1.90;;;;;;;15.05;95.81;99793.84;8308829;28;20507;-63
2023/04/21 17:26:59;;;;;;;9.93;2.30;;;;;;;15.04;100.00;99782.13;8309077;28;20053;-64
2023/04/21 17:31:00;;;;;;;2.85;1.50;;;;;;;15.01;95.63;99798.81;8311311;28;20179;-63
2023/04/21 17:35:01;;;;;;;3.28;1.63;;;;;;;15.04;97.91;99814.78;8309079;28;20103;-63
2023/04/21 17:39:02;;;;;;;3.28;2.10;;;;;;;14.86;97.94;99817.03;8309882;28;20470;-63
2023/04/21 17:43:02;;;;;;;2.35;1.55;;;;;;;15.03;90.94;99824.00;8316587;28;20348;-63
2023/04/21 17:47:06;;;;;;;2.05;1.65;;;;;;;15.18;89.02;99808.53;8320969;28;20041;-63
2023/04/21 17:51:08;;;;;;;;;;;;;;;15.20;88.76;99808.34;8318931;28;20090;-62
2023/04/21 17:55:08;;;;;;;6.72;2.17;;;;;;;15.12;100.00;99812.00;8320028;28;19917;-63
2023/04/21 17:59:09;;;;;;;4.55;2.42;;;;;;;14.96;100.00;99814.88;8320491;28;20491;-63
2023/04/21 18:03:09;;;;;;;5.25;2.88;;;;;;;14.90;100.00;99804.75;8321606;28;20038;-63
2023/04/21 18:07:10;;;;;;;4.25;2.72;;;;;;;14.73;100.00;99800.47;8320112;28;20068;-63
2023/04/21 18:11:11;;;;;;;3.83;2.38;;;;;;;14.75;100.00;99806.59;8311677;28;20033;-63
2023/04/21 18:15:11;;;;;;;3.83;2.53;;;;;;;14.79;100.00;99816.06;8319515;28;20034;-63
2023/04/21 18:19:11;;;;;;;6.32;2.80;;;;;;;14.93;100.00;99807.09;8309200;28;20050;-63
2023/04/21 18:23:12;;;;;;;4.05;2.72;;;;;;;15.00;96.31;99816.19;8300677;28;20373;-63
2023/04/21 18:27:12;;;;;;;10.98;3.78;;;;;;;14.87;100.00;99854.09;8302162;28;20041;-65
2023/04/21 18:31:13;;;;;;;5.13;1.90;;;;;;;14.73;99.77;99911.22;8315215;28;20048;-63